createdAt,value
2022-08-31T00:02:50.939Z,4.65
2022-08-31T00:07:50.093Z,4.60
2022-08-31T00:12:52.634Z,5.63
2022-08-31T00:17:57.498Z,5.15
2022-08-31T00:22:56.965Z,4.70
2022-08-31T00:27:57.545Z,4.72
2022-08-31T00:32:57.086Z,5.28
2022-08-31T00:42:58.145Z,4.95
2022-08-31T00:47:57.568Z,5.03
2022-08-31T00:53:00.879Z,5.32
2022-08-31T00:58:03.522Z,5.13
2022-08-31T01:03:04.632Z,5.72
2022-08-31T01:08:04.788Z,5.05
2022-08-31T01:13:05.673Z,4.63
2022-08-31T01:18:07.837Z,4.88
2022-08-31T01:23:12.654Z,4.75
2022-08-31T01:28:12.915Z,4.50
2022-08-31T01:33:13.380Z,5.35
2022-08-31T01:38:14.377Z,6.77
2022-08-31T01:43:13.462Z,4.65
2022-08-31T01:48:16.851Z,4.80
2022-08-31T01:53:17.314Z,6.28
2022-08-31T01:58:16.702Z,5.37
2022-08-31T02:03:48.371Z,5.15
2022-08-31T02:08:48.911Z,5.43
2022-08-31T02:13:48.414Z,6.20
2022-08-31T02:18:47.434Z,5.78
2022-08-31T02:23:46.814Z,6.18
2022-08-31T02:28:47.439Z,5.70
2022-08-31T02:33:46.604Z,5.40
2022-08-31T02:38:45.600Z,5.32
2022-08-31T02:43:44.829Z,5.13
2022-08-31T02:48:46.402Z,4.78
2022-08-31T02:53:52.785Z,5.45
2022-08-31T02:58:55.059Z,6.40
2022-08-31T03:03:57.707Z,6.05
2022-08-31T03:08:57.500Z,6.73
2022-08-31T03:13:58.614Z,6.70
2022-08-31T03:19:02.371Z,7.10
2022-08-31T03:24:01.339Z,6.32
2022-08-31T03:29:00.272Z,6.65
2022-08-31T03:34:18.960Z,6.47
2022-08-31T03:39:22.214Z,5.75
2022-08-31T03:44:24.155Z,6.25
2022-08-31T03:49:25.733Z,5.88
2022-08-31T03:54:43.689Z,6.93
2022-08-31T03:59:43.565Z,6.82
2022-08-31T04:05:15.989Z,6.07
2022-08-31T04:10:33.947Z,6.57
2022-08-31T04:15:55.121Z,7.10
2022-08-31T04:21:16.894Z,6.93
2022-08-31T04:26:17.891Z,7.57
2022-08-31T04:31:17.976Z,7.53
2022-08-31T04:36:21.328Z,8.02
2022-08-31T04:41:34.022Z,6.75
2022-08-31T04:46:35.127Z,8.32
2022-08-31T04:51:38.846Z,6.70
2022-08-31T04:56:49.335Z,8.23
2022-08-31T05:02:06.851Z,7.50
2022-08-31T05:07:30.351Z,7.10
2022-08-31T05:12:31.809Z,8.05
2022-08-31T05:17:31.033Z,6.50
2022-08-31T05:22:35.743Z,7.40
2022-08-31T05:27:38.378Z,8.18
2022-08-31T05:32:40.547Z,7.43
2022-08-31T05:37:43.974Z,8.15
2022-08-31T05:42:46.885Z,7.77
2022-08-31T05:47:45.819Z,7.35
2022-08-31T05:52:47.053Z,6.15
2022-08-31T05:57:52.934Z,5.22
2022-08-31T06:02:54.244Z,13.27
2022-08-31T06:08:04.597Z,8.13
2022-08-31T06:13:05.588Z,7.15
2022-08-31T06:18:05.692Z,6.60
2022-08-31T06:23:08.687Z,5.85
2022-08-31T06:28:18.422Z,5.18
2022-08-31T06:33:18.418Z,5.65
2022-08-31T06:38:32.800Z,7.32
2022-08-31T06:44:08.134Z,6.40
2022-08-31T06:49:26.297Z,7.45
2022-08-31T06:54:39.920Z,7.90
2022-08-31T07:00:10.190Z,8.35
2022-08-31T07:05:57.205Z,7.22
2022-08-31T07:11:21.635Z,6.72
2022-08-31T07:16:25.623Z,7.18
2022-08-31T07:21:27.051Z,6.95
2022-08-31T07:26:36.400Z,7.15
2022-08-31T07:31:40.454Z,7.97
2022-08-31T07:37:00.058Z,7.30
2022-08-31T07:42:11.951Z,6.70
2022-08-31T07:47:14.763Z,6.78
2022-08-31T07:52:23.928Z,6.55
2022-08-31T07:57:36.338Z,7.55
2022-08-31T08:02:39.353Z,7.13
2022-08-31T08:07:40.619Z,6.20
2022-08-31T08:13:04.231Z,8.35
2022-08-31T08:18:43.372Z,6.97
2022-08-31T08:23:43.375Z,6.65
2022-08-31T08:29:07.779Z,5.85
2022-08-31T08:34:11.869Z,6.10
2022-08-31T08:39:13.308Z,6.47
2022-08-31T08:44:25.008Z,6.85
2022-08-31T08:49:35.426Z,6.63
2022-08-31T08:54:48.100Z,6.25
2022-08-31T08:59:49.583Z,6.25
2022-08-31T09:05:09.710Z,6.30
2022-08-31T09:10:42.289Z,6.67
2022-08-31T09:16:14.384Z,6.82
2022-08-31T09:21:22.244Z,6.22
2022-08-31T09:26:27.950Z,6.45
2022-08-31T09:31:41.419Z,6.43
2022-08-31T09:36:42.241Z,6.40
2022-08-31T09:41:42.219Z,7.00
2022-08-31T09:46:51.757Z,6.55
2022-08-31T09:51:50.876Z,5.97
2022-08-31T09:56:55.700Z,5.70
2022-08-31T10:02:01.196Z,5.32
2022-08-31T10:07:08.218Z,5.10
2022-08-31T10:12:10.887Z,6.10
2022-08-31T10:17:16.503Z,6.32
2022-08-31T10:22:31.557Z,6.10
2022-08-31T10:33:16.434Z,5.38
2022-08-31T10:38:26.328Z,6.07
2022-08-31T10:43:31.695Z,5.60
2022-08-31T10:48:34.202Z,6.20
2022-08-31T10:54:13.808Z,5.95
2022-08-31T10:59:39.755Z,5.18
2022-08-31T11:04:58.618Z,5.00
2022-08-31T11:10:13.056Z,5.47
2022-08-31T11:15:44.983Z,4.78
2022-08-31T11:21:05.099Z,5.50
2022-08-31T11:26:42.251Z,5.93
2022-08-31T11:31:42.492Z,6.13
2022-08-31T11:36:55.380Z,4.68
2022-08-31T11:41:55.590Z,4.95
2022-08-31T11:47:09.312Z,5.82
2022-08-31T11:52:38.777Z,5.97
2022-08-31T11:58:20.818Z,4.70
2022-08-31T12:03:44.558Z,5.05
2022-08-31T12:08:59.414Z,5.40
2022-08-31T12:14:09.902Z,4.82
2022-08-31T12:19:42.554Z,5.20
2022-08-31T12:25:01.240Z,5.15
2022-08-31T12:30:29.426Z,5.07
2022-08-31T12:35:31.714Z,3.85
2022-08-31T12:40:36.339Z,4.82
2022-08-31T12:46:19.595Z,3.65
2022-08-31T12:51:35.116Z,4.80
2022-08-31T12:56:42.191Z,5.20
2022-08-31T13:01:45.017Z,4.03
2022-08-31T13:06:45.389Z,4.60
2022-08-31T13:11:53.131Z,4.30
2022-08-31T13:16:54.945Z,4.05
2022-08-31T13:22:00.685Z,4.00
2022-08-31T13:27:16.239Z,4.60
2022-08-31T13:32:32.472Z,4.65
2022-08-31T13:37:37.462Z,4.10
2022-08-31T13:42:41.744Z,3.90
2022-08-31T13:47:57.687Z,4.15
2022-08-31T13:53:25.482Z,3.72
2022-08-31T13:58:34.048Z,3.50
2022-08-31T14:03:42.178Z,4.93
2022-08-31T14:08:41.261Z,4.63
2022-08-31T14:13:49.265Z,5.10
2022-08-31T14:18:50.786Z,5.78
2022-08-31T14:23:52.152Z,5.78
2022-08-31T14:28:55.568Z,4.57
2022-08-31T14:34:09.494Z,9.07
2022-08-31T14:39:08.900Z,5.55
2022-08-31T14:44:13.590Z,5.47
2022-08-31T14:49:16.468Z,10.25
2022-08-31T14:54:17.314Z,6.13
2022-08-31T14:59:21.637Z,9.80
2022-08-31T15:04:22.476Z,8.73
2022-08-31T15:09:22.562Z,6.85
2022-08-31T15:14:23.142Z,8.63
2022-08-31T15:19:23.233Z,5.90
2022-08-31T15:24:23.992Z,5.72
2022-08-31T15:29:24.917Z,6.45
2022-08-31T15:34:30.340Z,5.75
2022-08-31T15:39:32.008Z,5.22
2022-08-31T15:44:35.359Z,5.05
2022-08-31T15:49:35.163Z,5.05
2022-08-31T15:54:35.907Z,5.05
2022-08-31T15:59:37.106Z,4.63
2022-08-31T16:04:38.580Z,4.30
2022-08-31T16:09:41.071Z,5.13
2022-08-31T16:14:44.785Z,5.68
2022-08-31T16:19:43.725Z,4.32
2022-08-31T16:24:43.300Z,4.60
2022-08-31T16:39:44.439Z,7.50
2022-08-31T16:44:47.913Z,6.50
2022-08-31T16:49:49.021Z,6.45
2022-08-31T16:54:51.130Z,6.35
2022-08-31T16:59:54.932Z,7.15
2022-08-31T17:04:54.493Z,5.63
2022-08-31T17:09:57.765Z,5.97
2022-08-31T17:14:58.301Z,4.93
2022-08-31T17:19:58.802Z,5.60
2022-08-31T17:25:08.551Z,6.18
2022-08-31T17:30:10.708Z,5.30
2022-08-31T17:35:11.365Z,5.80
2022-08-31T17:40:14.323Z,5.07
2022-08-31T17:45:15.729Z,5.20
2022-08-31T17:50:17.784Z,5.90
2022-08-31T17:55:16.691Z,5.18
2022-08-31T18:00:17.893Z,6.35
2022-08-31T18:05:18.879Z,6.40
2022-08-31T18:10:18.773Z,5.47
2022-08-31T18:15:19.656Z,5.00
2022-08-31T18:20:19.231Z,5.53
2022-08-31T18:25:18.299Z,5.80
2022-08-31T18:30:19.412Z,5.63
2022-08-31T18:35:19.666Z,5.93
2022-08-31T18:40:35.807Z,5.18
2022-08-31T18:45:39.718Z,6.80
2022-08-31T18:50:39.210Z,5.10
2022-08-31T18:55:38.649Z,5.18
2022-08-31T19:00:41.734Z,5.30
2022-08-31T19:05:44.057Z,4.53
2022-08-31T19:10:49.174Z,6.05
2022-08-31T19:16:15.190Z,5.55
2022-08-31T19:21:26.006Z,5.63
2022-08-31T19:26:34.300Z,5.30
2022-08-31T19:31:35.413Z,5.38
2022-08-31T19:36:35.347Z,4.95
2022-08-31T19:41:35.271Z,5.10
2022-08-31T19:46:36.125Z,4.70
2022-08-31T19:56:35.384Z,4.55
2022-08-31T20:01:36.705Z,5.32
2022-08-31T20:06:37.375Z,3.53
2022-08-31T20:11:40.089Z,4.88
2022-08-31T20:16:43.319Z,3.85
2022-08-31T20:21:44.714Z,3.85
2022-08-31T20:26:47.503Z,4.43
2022-08-31T20:31:56.190Z,3.90
2022-08-31T20:37:00.936Z,4.15
2022-08-31T20:42:01.663Z,3.65
2022-08-31T20:47:22.430Z,3.77
2022-08-31T20:52:22.985Z,4.00
2022-08-31T20:57:22.582Z,3.88
2022-08-31T21:02:23.287Z,4.40
2022-08-31T21:07:23.374Z,4.03
2022-08-31T21:12:23.011Z,3.83
2022-08-31T21:17:23.548Z,4.15
2022-08-31T21:22:22.405Z,3.13
2022-08-31T21:27:21.352Z,3.80
2022-08-31T21:32:20.264Z,3.67
2022-08-31T21:37:20.528Z,4.57
2022-08-31T21:42:19.943Z,4.43
2022-08-31T21:47:19.133Z,4.43
2022-08-31T21:52:18.680Z,5.40
2022-08-31T21:57:19.014Z,5.18
2022-08-31T22:02:18.479Z,5.60
2022-08-31T22:07:17.441Z,5.53
2022-08-31T22:12:18.305Z,5.35
2022-08-31T22:17:24.229Z,5.60
2022-08-31T22:22:32.115Z,5.80
2022-08-31T22:27:30.977Z,5.63
2022-08-31T22:32:31.562Z,5.38
2022-08-31T22:37:32.635Z,4.80
2022-08-31T22:42:31.891Z,5.20
2022-08-31T22:47:32.522Z,5.70
2022-08-31T22:52:34.148Z,4.70
2022-08-31T22:57:40.785Z,4.93
2022-08-31T23:03:06.290Z,4.38
2022-08-31T23:08:12.440Z,4.82
2022-08-31T23:13:11.706Z,5.10
2022-08-31T23:18:19.784Z,5.07
2022-08-31T23:23:20.380Z,5.45
2022-08-31T23:28:20.677Z,4.20
2022-08-31T23:33:21.425Z,4.22
2022-08-31T23:38:20.774Z,4.27
2022-08-31T23:43:22.792Z,4.00
2022-08-31T23:48:24.105Z,4.43
2022-08-31T23:53:31.157Z,4.65
2022-08-31T23:58:33.895Z,4.55
